KHON/HON METAR and TAF weather

Enter ICAO airport designator
Station Type Date Time Source
KHON METAR 2019/08/19 12:55 UTC NOAA

KHON 191255Z AUTO 17007KT 10SM CLR 17/14 A2995 RMK AO2 SLP138 T01720144


Station Type Date Time Source
KHON Decoded METAR 2019/08/19 12:55 UTC NOAA

Station name not available
Aug 19, 2019 - 08:55 AM EDT / 2019.08.19 1255 UTC
Wind: from the S (170 degrees) at 8 MPH (7 KT):0
Visibility: 10 mile(s):0
Sky conditions: clear
Temperature: 63.0 F (17.2 C)
Dew Point: 57.9 F (14.4 C)
Relative Humidity: 83%
Pressure (altimeter): 29.95 in. Hg (1014 hPa)
ob: KHON 191255Z AUTO 17007KT 10SM CLR 17/14 A2995 RMK AO2 SLP138 T01720144
cycle: 13

Station Type Date Time Source
KHON TAF 2019/08/19 12:24 UTC NOAA

TAF KHON 191122Z 1912/2012 16006KT P6SM SKC
FM191600 17010G17KT P6SM FEW020 SCT060
FM200100 15010KT P6SM SCT050
FM201000 19006KT P6SM SCT020

Example: see airport list